createdAt,value
2022-10-09T00:01:41.683Z,5.57
2022-10-09T00:05:42.978Z,4.40
2022-10-09T00:09:52.529Z,7.00
2022-10-09T00:13:55.758Z,9.03
2022-10-09T00:17:57.336Z,8.23
2022-10-09T00:21:58.749Z,7.27
2022-10-09T00:26:02.061Z,8.90
2022-10-09T00:30:04.990Z,7.53
2022-10-09T00:34:06.430Z,8.03
2022-10-09T00:38:08.453Z,7.27
2022-10-09T00:42:12.642Z,6.63
2022-10-09T00:46:25.298Z,9.73
2022-10-09T00:50:32.775Z,6.73
2022-10-09T00:54:36.869Z,5.97
2022-10-09T00:58:39.646Z,4.97
2022-10-09T01:02:41.259Z,9.60
2022-10-09T01:06:59.069Z,7.07
2022-10-09T01:11:09.476Z,7.90
2022-10-09T01:15:17.600Z,8.93
2022-10-09T01:19:35.477Z,5.77
2022-10-09T01:23:52.915Z,5.00
2022-10-09T01:27:56.744Z,8.37
2022-10-09T01:32:00.119Z,5.33
2022-10-09T01:36:03.993Z,8.40
2022-10-09T01:40:08.861Z,6.90
2022-10-09T01:44:19.465Z,8.57
2022-10-09T01:48:24.516Z,8.23
2022-10-09T01:52:41.306Z,6.10
2022-10-09T01:56:47.157Z,7.13
2022-10-09T02:00:54.309Z,9.43
2022-10-09T02:04:58.409Z,4.30
2022-10-09T02:09:01.741Z,7.77
2022-10-09T02:13:03.496Z,5.23
2022-10-09T02:17:11.545Z,6.00
2022-10-09T02:21:15.809Z,7.00
2022-10-09T02:25:18.317Z,8.33
2022-10-09T02:29:20.648Z,8.00
2022-10-09T02:33:30.745Z,7.40
2022-10-09T02:37:32.516Z,11.13
2022-10-09T02:41:34.591Z,16.53
2022-10-09T02:45:38.212Z,18.97
2022-10-09T02:49:41.133Z,25.73
2022-10-09T02:53:43.537Z,24.53
2022-10-09T02:57:44.925Z,18.47
2022-10-09T03:01:46.584Z,19.00
2022-10-09T03:05:59.866Z,17.67
2022-10-09T03:10:01.520Z,16.17
2022-10-09T03:14:02.928Z,13.87
2022-10-09T03:18:04.758Z,9.53
2022-10-09T03:22:07.705Z,14.20
2022-10-09T03:26:10.905Z,17.33
2022-10-09T03:30:13.229Z,17.97
2022-10-09T03:34:14.650Z,24.90
2022-10-09T03:38:17.413Z,17.97
2022-10-09T03:42:18.867Z,29.63
2022-10-09T03:46:20.385Z,30.43
2022-10-09T03:50:22.045Z,31.73
2022-10-09T03:54:24.841Z,29.37
2022-10-09T03:58:26.269Z,29.23
2022-10-09T04:02:27.729Z,28.17
2022-10-09T04:06:29.186Z,27.73
2022-10-09T04:10:31.922Z,25.23
2022-10-09T04:14:33.477Z,15.83
2022-10-09T04:18:35.063Z,15.10
2022-10-09T04:22:36.984Z,14.90
2022-10-09T04:26:39.865Z,9.17
2022-10-09T04:30:41.481Z,10.27
2022-10-09T04:34:42.874Z,7.43
2022-10-09T04:38:44.406Z,6.43
2022-10-09T04:42:47.445Z,8.10
2022-10-09T04:46:50.281Z,10.37
2022-10-09T04:50:51.678Z,8.07
2022-10-09T04:54:53.098Z,8.27
2022-10-09T04:58:56.010Z,7.73
2022-10-09T05:02:57.521Z,12.03
2022-10-09T05:06:58.981Z,6.67
2022-10-09T05:11:01.073Z,5.77
2022-10-09T05:15:04.682Z,9.63
2022-10-09T05:19:06.102Z,9.00
2022-10-09T05:23:07.517Z,9.20
2022-10-09T05:27:08.998Z,9.40
2022-10-09T05:31:17.443Z,7.03
2022-10-09T05:35:18.986Z,7.17
2022-10-09T05:39:20.346Z,8.33
2022-10-09T05:43:23.920Z,10.50
2022-10-09T05:47:26.675Z,8.70
2022-10-09T05:51:29.608Z,12.03
2022-10-09T05:55:31.236Z,9.03
2022-10-09T05:59:32.632Z,7.00
2022-10-09T06:03:35.667Z,12.33
2022-10-09T06:07:37.584Z,6.23
2022-10-09T06:11:40.323Z,8.10
2022-10-09T06:15:51.737Z,7.87
2022-10-09T06:19:54.508Z,7.17
2022-10-09T06:23:58.164Z,7.60
2022-10-09T06:27:59.751Z,12.77
2022-10-09T06:32:01.304Z,7.90
2022-10-09T06:36:10.223Z,15.67
2022-10-09T06:40:11.907Z,7.63
2022-10-09T06:44:16.596Z,10.50
2022-10-09T06:48:18.426Z,14.20
2022-10-09T06:52:21.662Z,9.67
2022-10-09T06:56:25.839Z,10.30
2022-10-09T07:00:29.069Z,9.03
2022-10-09T07:04:30.701Z,11.97
2022-10-09T07:08:33.798Z,10.97
2022-10-09T07:12:35.582Z,10.40
2022-10-09T07:16:38.984Z,12.03
2022-10-09T07:20:40.398Z,11.77
2022-10-09T07:24:43.330Z,6.90
2022-10-09T07:28:46.835Z,6.80
2022-10-09T07:32:48.701Z,6.37
2022-10-09T07:36:50.434Z,6.07
2022-10-09T07:40:53.897Z,4.63
2022-10-09T07:44:55.453Z,5.13
2022-10-09T07:48:56.830Z,5.00
2022-10-09T07:52:58.378Z,9.67
2022-10-09T07:57:01.264Z,6.67
2022-10-09T08:01:05.161Z,9.07
2022-10-09T08:05:08.119Z,7.10
2022-10-09T08:09:10.943Z,9.23
2022-10-09T08:13:13.859Z,7.23
2022-10-09T08:17:15.515Z,11.47
2022-10-09T08:21:18.523Z,11.50
2022-10-09T08:25:20.085Z,12.67
2022-10-09T08:29:23.011Z,8.63
2022-10-09T08:33:24.682Z,7.40
2022-10-09T08:37:26.086Z,7.00
2022-10-09T08:41:43.711Z,6.40
2022-10-09T08:45:51.322Z,10.17
2022-10-09T08:49:58.985Z,15.23
2022-10-09T08:54:05.291Z,9.57
2022-10-09T08:58:14.123Z,9.83
2022-10-09T09:02:49.627Z,7.20
2022-10-09T09:07:00.779Z,7.53
2022-10-09T09:11:21.233Z,8.87
2022-10-09T09:15:42.592Z,12.20
2022-10-09T09:19:56.263Z,6.83
2022-10-09T09:23:59.884Z,7.83
2022-10-09T09:28:13.324Z,8.07
2022-10-09T09:32:19.845Z,7.17
2022-10-09T09:36:26.517Z,6.73
2022-10-09T09:40:36.853Z,8.87
2022-10-09T09:44:46.009Z,5.10
2022-10-09T09:48:48.630Z,4.40
2022-10-09T09:52:51.471Z,5.43
2022-10-09T09:57:22.345Z,5.23
2022-10-09T10:01:23.715Z,20.93
2022-10-09T10:05:27.107Z,6.93
2022-10-09T10:09:30.069Z,10.53
2022-10-09T10:13:34.630Z,4.80
2022-10-09T10:17:37.299Z,4.70
2022-10-09T10:21:40.982Z,4.00
2022-10-09T10:25:43.834Z,3.90
2022-10-09T10:29:47.672Z,4.03
2022-10-09T10:33:53.824Z,4.70
2022-10-09T10:38:01.631Z,5.23
2022-10-09T10:42:13.872Z,7.07
2022-10-09T10:46:22.193Z,4.77
2022-10-09T10:50:30.583Z,5.07
2022-10-09T10:54:38.728Z,6.67
2022-10-09T10:58:51.600Z,3.93
2022-10-09T11:03:20.986Z,3.47
2022-10-09T11:07:27.358Z,3.77
2022-10-09T11:11:36.482Z,3.50
2022-10-09T11:15:51.756Z,3.43
2022-10-09T11:20:03.167Z,3.27
2022-10-09T11:24:22.508Z,4.57
2022-10-09T11:28:28.215Z,3.77
2022-10-09T11:32:35.529Z,5.03
2022-10-09T11:36:40.766Z,2.43
2022-10-09T11:40:43.028Z,3.90
2022-10-09T11:44:53.460Z,3.83
2022-10-09T11:49:12.085Z,4.93
2022-10-09T11:53:16.333Z,6.40
2022-10-09T11:57:27.409Z,4.40
2022-10-09T12:01:32.744Z,9.47
2022-10-09T12:05:40.892Z,2.90
2022-10-09T12:09:44.561Z,3.60
2022-10-09T12:13:50.401Z,4.23
2022-10-09T12:17:51.870Z,3.43
2022-10-09T12:22:06.139Z,3.13
2022-10-09T12:26:11.290Z,3.23
2022-10-09T12:30:20.143Z,4.47
2022-10-09T12:34:26.402Z,4.87
2022-10-09T12:38:31.286Z,4.27
2022-10-09T12:42:32.835Z,3.80
2022-10-09T12:46:36.843Z,5.90
2022-10-09T12:50:38.918Z,1.97
2022-10-09T12:54:44.487Z,2.30
2022-10-09T12:58:46.143Z,2.23
2022-10-09T13:02:48.229Z,3.60
2022-10-09T13:06:51.244Z,5.73
2022-10-09T13:10:55.029Z,3.27
2022-10-09T13:14:58.063Z,2.93
2022-10-09T13:19:01.921Z,8.53
2022-10-09T13:23:05.717Z,2.47
2022-10-09T13:27:10.111Z,1.70
2022-10-09T13:31:12.006Z,4.23
2022-10-09T13:35:13.807Z,2.73
2022-10-09T13:39:16.410Z,7.13
2022-10-09T13:43:22.766Z,4.00
2022-10-09T13:47:24.980Z,3.63
2022-10-09T13:51:26.619Z,2.63
2022-10-09T13:55:28.320Z,1.87
2022-10-09T13:59:31.566Z,3.20
2022-10-09T14:03:33.024Z,3.77
2022-10-09T14:07:35.715Z,2.90
2022-10-09T14:11:37.224Z,2.73
2022-10-09T14:15:41.517Z,3.00
2022-10-09T14:19:43.107Z,4.70
2022-10-09T14:23:44.911Z,3.17
2022-10-09T14:27:46.631Z,2.70
2022-10-09T14:31:50.820Z,3.67
2022-10-09T14:35:52.255Z,2.97
2022-10-09T14:39:53.707Z,2.07
2022-10-09T14:43:57.793Z,3.83
2022-10-09T14:48:00.531Z,4.00
2022-10-09T14:52:01.931Z,3.33
2022-10-09T14:56:05.611Z,3.03
2022-10-09T15:00:09.922Z,5.90
2022-10-09T15:04:14.572Z,3.60
2022-10-09T15:08:16.240Z,3.87
2022-10-09T15:12:17.778Z,3.10
2022-10-09T15:16:20.235Z,2.17
2022-10-09T15:20:23.224Z,2.20
2022-10-09T15:24:24.967Z,2.97
2022-10-09T15:28:27.089Z,2.03
2022-10-09T15:32:28.560Z,2.23
2022-10-09T15:36:34.694Z,4.03
2022-10-09T15:40:42.320Z,4.13
2022-10-09T15:44:44.389Z,4.37
2022-10-09T15:48:46.641Z,3.03
2022-10-09T15:52:49.850Z,2.20
2022-10-09T15:56:51.443Z,5.00
2022-10-09T16:00:52.858Z,3.73
2022-10-09T16:04:54.278Z,4.20
2022-10-09T16:08:58.346Z,3.47
2022-10-09T16:13:00.170Z,3.30
2022-10-09T16:17:01.607Z,3.50
2022-10-09T16:21:05.067Z,2.50
2022-10-09T16:25:08.779Z,6.33
2022-10-09T16:29:10.275Z,2.17
2022-10-09T16:33:12.814Z,4.03
2022-10-09T16:37:14.478Z,3.43
2022-10-09T16:41:19.560Z,2.53
2022-10-09T16:45:20.939Z,5.33
2022-10-09T16:49:24.282Z,4.33
2022-10-09T16:53:26.687Z,2.47
2022-10-09T16:57:29.471Z,3.47
2022-10-09T17:01:31.008Z,3.63
2022-10-09T17:05:37.354Z,2.73
2022-10-09T17:09:39.366Z,3.20
2022-10-09T17:13:42.227Z,2.83
2022-10-09T17:17:43.654Z,3.23
2022-10-09T17:21:45.130Z,1.77
2022-10-09T17:25:46.967Z,5.20
2022-10-09T17:29:49.771Z,2.63
2022-10-09T17:33:55.047Z,3.77
2022-10-09T17:37:56.628Z,3.77
2022-10-09T17:41:58.236Z,4.67
2022-10-09T17:46:01.404Z,4.77
2022-10-09T17:50:03.013Z,1.77
2022-10-09T17:54:10.892Z,5.40
2022-10-09T17:58:13.527Z,7.07
2022-10-09T18:02:16.344Z,4.00
2022-10-09T18:06:19.571Z,3.53
2022-10-09T18:10:20.987Z,2.73
2022-10-09T18:14:22.518Z,3.23
2022-10-09T18:18:25.450Z,4.40
2022-10-09T18:22:27.059Z,2.90
2022-10-09T18:26:28.729Z,2.40
2022-10-09T18:30:30.515Z,3.03
2022-10-09T18:34:38.310Z,4.53
2022-10-09T18:38:40.865Z,2.87
2022-10-09T18:42:42.340Z,2.63
2022-10-09T18:46:47.849Z,2.43
2022-10-09T18:50:50.695Z,2.40
2022-10-09T18:54:54.679Z,2.50
2022-10-09T18:58:56.398Z,2.10
2022-10-09T19:02:58.066Z,3.40
2022-10-09T19:07:00.981Z,1.73
2022-10-09T19:11:02.554Z,3.10
2022-10-09T19:15:09.605Z,4.57
2022-10-09T19:19:13.741Z,2.57
2022-10-09T19:23:17.395Z,3.40
2022-10-09T19:27:19.740Z,3.63
2022-10-09T19:31:22.467Z,5.43
2022-10-09T19:35:24.022Z,3.23
2022-10-09T19:39:26.909Z,3.43
2022-10-09T19:43:28.470Z,4.27
2022-10-09T19:47:30.014Z,3.17
2022-10-09T19:51:31.915Z,2.93
2022-10-09T19:55:34.824Z,3.00
2022-10-09T19:59:36.240Z,3.40
2022-10-09T20:03:37.952Z,3.57
2022-10-09T20:07:39.492Z,4.53
2022-10-09T20:11:42.567Z,2.37
2022-10-09T20:15:44.013Z,3.47
2022-10-09T20:19:45.908Z,2.40
2022-10-09T20:23:47.599Z,2.83
2022-10-09T20:27:50.341Z,2.73
2022-10-09T20:31:53.190Z,4.03
2022-10-09T20:35:54.730Z,4.33
2022-10-09T20:39:56.250Z,4.27
2022-10-09T20:44:01.276Z,5.43
2022-10-09T20:48:02.816Z,3.20
2022-10-09T20:52:04.223Z,4.73
2022-10-09T20:56:08.385Z,4.87
2022-10-09T21:00:12.662Z,7.47
2022-10-09T21:04:14.265Z,4.73
2022-10-09T21:08:15.865Z,4.03
2022-10-09T21:12:17.471Z,3.57
2022-10-09T21:16:22.666Z,5.83
2022-10-09T21:20:24.054Z,2.60
2022-10-09T21:24:26.057Z,3.13
2022-10-09T21:28:28.016Z,2.10
2022-10-09T21:32:30.870Z,3.50
2022-10-09T21:36:36.883Z,3.60
2022-10-09T21:40:39.891Z,7.90
2022-10-09T21:44:41.277Z,4.00
2022-10-09T21:48:44.201Z,2.83
2022-10-09T21:52:47.402Z,3.00
2022-10-09T21:56:49.077Z,3.10
2022-10-09T22:00:55.713Z,4.07
2022-10-09T22:04:58.441Z,4.33
2022-10-09T22:09:00.997Z,2.60
2022-10-09T22:13:02.559Z,3.20
2022-10-09T22:17:04.110Z,7.27
2022-10-09T22:21:09.406Z,3.00
2022-10-09T22:25:10.791Z,9.57
2022-10-09T22:29:12.320Z,5.20
2022-10-09T22:33:13.881Z,4.10
2022-10-09T22:37:16.779Z,4.23
2022-10-09T22:41:20.566Z,5.83
2022-10-09T22:45:21.946Z,8.77
2022-10-09T22:49:23.462Z,3.73
2022-10-09T22:53:26.318Z,2.60
2022-10-09T22:57:28.686Z,4.60
2022-10-09T23:01:34.839Z,5.80
2022-10-09T23:05:36.446Z,2.17
2022-10-09T23:09:39.322Z,3.83
2022-10-09T23:13:40.998Z,5.30
2022-10-09T23:17:42.587Z,5.87
2022-10-09T23:21:45.366Z,4.57
2022-10-09T23:25:48.270Z,3.47
2022-10-09T23:29:49.874Z,6.67
2022-10-09T23:33:51.467Z,2.10
2022-10-09T23:37:53.039Z,5.00
2022-10-09T23:41:55.903Z,4.53
2022-10-09T23:45:59.402Z,3.57
2022-10-09T23:50:00.843Z,4.13
2022-10-09T23:54:02.375Z,3.57
2022-10-09T23:58:05.362Z,8.07
